sensor_id;sensor_type;location;lat;lon;timestamp;temperature;humidity
3560;DHT22;1794;48.804;9.156;2022-07-04T00:01:14;21.10;1.00
3560;DHT22;1794;48.804;9.156;2022-07-04T00:03:40;21.00;1.00
3560;DHT22;1794;48.804;9.156;2022-07-04T00:06:07;21.30;1.00
3560;DHT22;1794;48.804;9.156;2022-07-04T00:08:34;21.30;1.00
3560;DHT22;1794;48.804;9.156;2022-07-04T00:11:02;21.20;1.00
3560;DHT22;1794;48.804;9.156;2022-07-04T00:13:29;21.00;1.00
3560;DHT22;1794;48.804;9.156;2022-07-04T00:15:56;21.10;1.00
3560;DHT22;1794;48.804;9.156;2022-07-04T00:18:22;21.30;1.00
3560;DHT22;1794;48.804;9.156;2022-07-04T00:20:49;21.40;1.00
3560;DHT22;1794;48.804;9.156;2022-07-04T00:23:16;21.50;1.00
3560;DHT22;1794;48.804;9.156;2022-07-04T00:25:42;21.40;1.00
3560;DHT22;1794;48.804;9.156;2022-07-04T00:28:10;21.20;1.00
3560;DHT22;1794;48.804;9.156;2022-07-04T00:30:37;20.90;1.00
3560;DHT22;1794;48.804;9.156;2022-07-04T00:33:04;21.00;1.00
3560;DHT22;1794;48.804;9.156;2022-07-04T00:35:30;21.10;1.00
3560;DHT22;1794;48.804;9.156;2022-07-04T00:37:57;21.30;1.00
3560;DHT22;1794;48.804;9.156;2022-07-04T00:40:24;21.10;1.00
3560;DHT22;1794;48.804;9.156;2022-07-04T00:42:51;21.00;1.00
3560;DHT22;1794;48.804;9.156;2022-07-04T00:45:19;21.10;1.00
3560;DHT22;1794;48.804;9.156;2022-07-04T00:47:45;21.30;1.00
3560;DHT22;1794;48.804;9.156;2022-07-04T00:50:12;20.90;1.00
3560;DHT22;1794;48.804;9.156;2022-07-04T00:52:39;20.90;1.00
3560;DHT22;1794;48.804;9.156;2022-07-04T00:55:06;21.10;1.00
3560;DHT22;1794;48.804;9.156;2022-07-04T00:57:34;21.30;1.00
3560;DHT22;1794;48.804;9.156;2022-07-04T01:00:00;21.00;1.00
3560;DHT22;1794;48.804;9.156;2022-07-04T01:02:28;20.80;1.00
3560;DHT22;1794;48.804;9.156;2022-07-04T01:04:55;20.80;1.00
3560;DHT22;1794;48.804;9.156;2022-07-04T01:07:22;20.70;1.00
3560;DHT22;1794;48.804;9.156;2022-07-04T01:09:49;20.90;1.00
3560;DHT22;1794;48.804;9.156;2022-07-04T01:12:25;20.90;1.00
3560;DHT22;1794;48.804;9.156;2022-07-04T01:14:52;20.80;1.00
3560;DHT22;1794;48.804;9.156;2022-07-04T01:17:18;20.80;1.00
3560;DHT22;1794;48.804;9.156;2022-07-04T01:19:47;20.80;1.00
3560;DHT22;1794;48.804;9.156;2022-07-04T01:22:15;20.50;1.00
3560;DHT22;1794;48.804;9.156;2022-07-04T01:24:42;20.40;1.00
3560;DHT22;1794;48.804;9.156;2022-07-04T01:27:08;20.50;1.00
3560;DHT22;1794;48.804;9.156;2022-07-04T01:29:35;20.40;1.00
3560;DHT22;1794;48.804;9.156;2022-07-04T01:32:06;20.60;1.00
3560;DHT22;1794;48.804;9.156;2022-07-04T01:34:33;20.60;1.00
3560;DHT22;1794;48.804;9.156;2022-07-04T01:37:01;20.40;1.00
3560;DHT22;1794;48.804;9.156;2022-07-04T01:39:29;20.10;1.00
3560;DHT22;1794;48.804;9.156;2022-07-04T01:41:56;20.20;1.00
3560;DHT22;1794;48.804;9.156;2022-07-04T01:44:22;20.40;1.00
3560;DHT22;1794;48.804;9.156;2022-07-04T01:46:49;20.20;1.00
3560;DHT22;1794;48.804;9.156;2022-07-04T01:49:16;20.30;1.00
3560;DHT22;1794;48.804;9.156;2022-07-04T01:51:46;20.00;1.00
3560;DHT22;1794;48.804;9.156;2022-07-04T01:54:13;19.90;1.00
3560;DHT22;1794;48.804;9.156;2022-07-04T01:56:41;20.10;1.00
3560;DHT22;1794;48.804;9.156;2022-07-04T01:59:08;20.30;1.00
3560;DHT22;1794;48.804;9.156;2022-07-04T02:01:35;20.20;1.00
3560;DHT22;1794;48.804;9.156;2022-07-04T02:04:02;20.00;1.00
3560;DHT22;1794;48.804;9.156;2022-07-04T02:06:29;19.80;1.00
3560;DHT22;1794;48.804;9.156;2022-07-04T02:08:57;19.60;1.00
3560;DHT22;1794;48.804;9.156;2022-07-04T02:11:45;19.60;1.00
3560;DHT22;1794;48.804;9.156;2022-07-04T02:14:29;19.80;1.00
3560;DHT22;1794;48.804;9.156;2022-07-04T02:16:56;20.00;1.00
3560;DHT22;1794;48.804;9.156;2022-07-04T02:19:22;19.70;1.00
3560;DHT22;1794;48.804;9.156;2022-07-04T02:21:49;19.90;1.00
3560;DHT22;1794;48.804;9.156;2022-07-04T02:24:17;19.80;1.00
3560;DHT22;1794;48.804;9.156;2022-07-04T02:26:45;19.40;1.00
3560;DHT22;1794;48.804;9.156;2022-07-04T02:29:12;19.20;1.00
3560;DHT22;1794;48.804;9.156;2022-07-04T02:31:38;19.10;1.00
3560;DHT22;1794;48.804;9.156;2022-07-04T02:34:05;19.20;1.00
3560;DHT22;1794;48.804;9.156;2022-07-04T02:36:32;19.30;1.00
3560;DHT22;1794;48.804;9.156;2022-07-04T02:38:59;19.30;1.00
3560;DHT22;1794;48.804;9.156;2022-07-04T02:41:25;19.30;1.00
3560;DHT22;1794;48.804;9.156;2022-07-04T02:43:53;19.60;1.00
3560;DHT22;1794;48.804;9.156;2022-07-04T02:46:20;19.60;1.00
3560;DHT22;1794;48.804;9.156;2022-07-04T02:48:47;19.20;1.00
3560;DHT22;1794;48.804;9.156;2022-07-04T02:51:13;19.20;1.00
3560;DHT22;1794;48.804;9.156;2022-07-04T02:53:40;19.00;1.00
3560;DHT22;1794;48.804;9.156;2022-07-04T02:56:07;19.10;1.00
3560;DHT22;1794;48.804;9.156;2022-07-04T02:58:34;19.00;1.00
3560;DHT22;1794;48.804;9.156;2022-07-04T03:01:02;19.30;1.00
3560;DHT22;1794;48.804;9.156;2022-07-04T03:03:29;19.30;1.00
3560;DHT22;1794;48.804;9.156;2022-07-04T03:05:55;19.00;1.00
3560;DHT22;1794;48.804;9.156;2022-07-04T03:08:22;18.70;1.00
3560;DHT22;1794;48.804;9.156;2022-07-04T03:10:49;18.70;1.00
3560;DHT22;1794;48.804;9.156;2022-07-04T03:13:17;18.80;1.00
3560;DHT22;1794;48.804;9.156;2022-07-04T03:15:44;19.20;1.00
3560;DHT22;1794;48.804;9.156;2022-07-04T03:18:12;19.30;1.00
3560;DHT22;1794;48.804;9.156;2022-07-04T03:20:39;19.00;1.00
3560;DHT22;1794;48.804;9.156;2022-07-04T03:23:05;18.50;1.00
3560;DHT22;1794;48.804;9.156;2022-07-04T03:25:32;18.40;1.00
3560;DHT22;1794;48.804;9.156;2022-07-04T03:27:59;18.40;1.00
3560;DHT22;1794;48.804;9.156;2022-07-04T03:30:26;18.20;1.00
3560;DHT22;1794;48.804;9.156;2022-07-04T03:32:53;18.20;1.00
3560;DHT22;1794;48.804;9.156;2022-07-04T03:35:21;18.00;1.00
3560;DHT22;1794;48.804;9.156;2022-07-04T03:37:48;17.90;1.00
3560;DHT22;1794;48.804;9.156;2022-07-04T03:40:14;17.90;1.00
3560;DHT22;1794;48.804;9.156;2022-07-04T03:42:41;17.80;1.00
3560;DHT22;1794;48.804;9.156;2022-07-04T03:45:09;17.80;1.00
3560;DHT22;1794;48.804;9.156;2022-07-04T03:47:36;17.80;1.00
3560;DHT22;1794;48.804;9.156;2022-07-04T03:50:03;17.80;1.00
3560;DHT22;1794;48.804;9.156;2022-07-04T03:52:32;17.80;1.00
3560;DHT22;1794;48.804;9.156;2022-07-04T03:54:59;17.80;1.00
3560;DHT22;1794;48.804;9.156;2022-07-04T03:57:25;17.90;1.00
3560;DHT22;1794;48.804;9.156;2022-07-04T03:59:52;17.90;1.00
3560;DHT22;1794;48.804;9.156;2022-07-04T04:02:19;17.80;1.00
3560;DHT22;1794;48.804;9.156;2022-07-04T04:04:45;18.00;1.00
3560;DHT22;1794;48.804;9.156;2022-07-04T04:07:29;17.90;11.10
3560;DHT22;1794;48.804;9.156;2022-07-04T04:09:57;17.90;15.50
3560;DHT22;1794;48.804;9.156;2022-07-04T04:12:24;18.00;1.00
3560;DHT22;1794;48.804;9.156;2022-07-04T04:14:51;18.00;1.00
3560;DHT22;1794;48.804;9.156;2022-07-04T04:17:18;18.00;2.60
3560;DHT22;1794;48.804;9.156;2022-07-04T04:19:45;18.10;20.10
3560;DHT22;1794;48.804;9.156;2022-07-04T04:22:12;17.80;14.60
3560;DHT22;1794;48.804;9.156;2022-07-04T04:24:39;17.80;25.90
3560;DHT22;1794;48.804;9.156;2022-07-04T04:27:07;17.70;30.60
3560;DHT22;1794;48.804;9.156;2022-07-04T04:29:33;17.50;24.60
3560;DHT22;1794;48.804;9.156;2022-07-04T04:32:00;17.60;19.00
3560;DHT22;1794;48.804;9.156;2022-07-04T04:34:27;17.70;5.50
3560;DHT22;1794;48.804;9.156;2022-07-04T04:36:54;17.80;6.30
3560;DHT22;1794;48.804;9.156;2022-07-04T04:39:20;17.90;1.00
3560;DHT22;1794;48.804;9.156;2022-07-04T04:41:47;17.90;1.00
3560;DHT22;1794;48.804;9.156;2022-07-04T04:44:15;17.90;13.20
3560;DHT22;1794;48.804;9.156;2022-07-04T04:46:41;18.00;4.80
3560;DHT22;1794;48.804;9.156;2022-07-04T04:49:08;18.10;7.70
3560;DHT22;1794;48.804;9.156;2022-07-04T04:51:35;18.00;1.00
3560;DHT22;1794;48.804;9.156;2022-07-04T04:54:02;18.10;1.00
3560;DHT22;1794;48.804;9.156;2022-07-04T04:56:28;17.90;1.00
3560;DHT22;1794;48.804;9.156;2022-07-04T04:58:55;18.20;1.00
3560;DHT22;1794;48.804;9.156;2022-07-04T05:01:23;18.40;1.00
3560;DHT22;1794;48.804;9.156;2022-07-04T05:03:50;18.80;1.00
3560;DHT22;1794;48.804;9.156;2022-07-04T05:06:17;18.90;1.00
3560;DHT22;1794;48.804;9.156;2022-07-04T05:08:44;18.90;1.00
3560;DHT22;1794;48.804;9.156;2022-07-04T05:11:11;19.00;1.00
3560;DHT22;1794;48.804;9.156;2022-07-04T05:13:38;19.00;1.00
3560;DHT22;1794;48.804;9.156;2022-07-04T05:16:04;19.00;1.00
3560;DHT22;1794;48.804;9.156;2022-07-04T05:18:32;19.10;1.00
3560;DHT22;1794;48.804;9.156;2022-07-04T05:20:59;19.10;1.00
3560;DHT22;1794;48.804;9.156;2022-07-04T05:23:26;19.00;1.00
3560;DHT22;1794;48.804;9.156;2022-07-04T05:25:52;19.00;1.00
3560;DHT22;1794;48.804;9.156;2022-07-04T05:28:19;19.20;1.00
3560;DHT22;1794;48.804;9.156;2022-07-04T05:30:46;19.60;1.00
3560;DHT22;1794;48.804;9.156;2022-07-04T05:33:12;20.00;1.00
3560;DHT22;1794;48.804;9.156;2022-07-04T05:35:40;20.40;1.00
3560;DHT22;1794;48.804;9.156;2022-07-04T05:38:07;20.20;1.00
3560;DHT22;1794;48.804;9.156;2022-07-04T05:40:34;20.50;1.00
3560;DHT22;1794;48.804;9.156;2022-07-04T05:43:00;20.40;1.00
3560;DHT22;1794;48.804;9.156;2022-07-04T05:45:27;20.10;1.00
3560;DHT22;1794;48.804;9.156;2022-07-04T05:47:54;20.60;1.00
3560;DHT22;1794;48.804;9.156;2022-07-04T05:50:20;21.20;1.00
3560;DHT22;1794;48.804;9.156;2022-07-04T05:52:48;21.60;1.00
3560;DHT22;1794;48.804;9.156;2022-07-04T05:55:15;22.00;99.90
3560;DHT22;1794;48.804;9.156;2022-07-04T05:57:42;22.20;99.90
3560;DHT22;1794;48.804;9.156;2022-07-04T06:00:09;22.20;99.90
3560;DHT22;1794;48.804;9.156;2022-07-04T06:02:37;22.70;99.90
3560;DHT22;1794;48.804;9.156;2022-07-04T06:05:04;22.70;99.90
3560;DHT22;1794;48.804;9.156;2022-07-04T06:07:31;23.10;99.90
3560;DHT22;1794;48.804;9.156;2022-07-04T06:09:59;23.30;99.90
3560;DHT22;1794;48.804;9.156;2022-07-04T06:12:25;22.80;99.90
3560;DHT22;1794;48.804;9.156;2022-07-04T06:14:52;22.80;99.90
3560;DHT22;1794;48.804;9.156;2022-07-04T06:17:19;23.20;99.90
3560;DHT22;1794;48.804;9.156;2022-07-04T06:19:46;23.30;99.90
3560;DHT22;1794;48.804;9.156;2022-07-04T06:22:13;23.10;99.90
3560;DHT22;1794;48.804;9.156;2022-07-04T06:24:40;23.00;99.90
3560;DHT22;1794;48.804;9.156;2022-07-04T06:27:08;22.90;99.90
3560;DHT22;1794;48.804;9.156;2022-07-04T06:29:34;22.70;99.90
3560;DHT22;1794;48.804;9.156;2022-07-04T06:32:01;22.40;99.90
3560;DHT22;1794;48.804;9.156;2022-07-04T06:34:28;22.90;99.90
3560;DHT22;1794;48.804;9.156;2022-07-04T06:37:12;22.70;99.90
3560;DHT22;1794;48.804;9.156;2022-07-04T06:39:39;22.70;99.90
3560;DHT22;1794;48.804;9.156;2022-07-04T06:42:07;23.10;99.90
3560;DHT22;1794;48.804;9.156;2022-07-04T06:44:34;23.40;93.00
3560;DHT22;1794;48.804;9.156;2022-07-04T06:47:01;23.80;1.00
3560;DHT22;1794;48.804;9.156;2022-07-04T06:49:27;23.80;1.00
3560;DHT22;1794;48.804;9.156;2022-07-04T06:51:54;23.00;99.90
3560;DHT22;1794;48.804;9.156;2022-07-04T06:54:21;23.40;43.00
3560;DHT22;1794;48.804;9.156;2022-07-04T06:56:47;22.90;53.70
3560;DHT22;1794;48.804;9.156;2022-07-04T06:59:15;23.50;1.00
3560;DHT22;1794;48.804;9.156;2022-07-04T07:01:42;23.90;1.00
3560;DHT22;1794;48.804;9.156;2022-07-04T07:04:09;23.90;1.00
3560;DHT22;1794;48.804;9.156;2022-07-04T07:06:36;24.10;1.00
3560;DHT22;1794;48.804;9.156;2022-07-04T07:09:02;24.40;99.90
3560;DHT22;1794;48.804;9.156;2022-07-04T07:11:30;24.20;1.00
3560;DHT22;1794;48.804;9.156;2022-07-04T07:13:56;24.50;1.00
3560;DHT22;1794;48.804;9.156;2022-07-04T07:16:25;24.70;1.00
3560;DHT22;1794;48.804;9.156;2022-07-04T07:18:52;25.00;99.90
3560;DHT22;1794;48.804;9.156;2022-07-04T07:21:18;24.70;33.00
3560;DHT22;1794;48.804;9.156;2022-07-04T07:23:45;24.60;99.90
3560;DHT22;1794;48.804;9.156;2022-07-04T07:26:12;24.90;99.90
3560;DHT22;1794;48.804;9.156;2022-07-04T07:28:39;25.10;1.00
3560;DHT22;1794;48.804;9.156;2022-07-04T07:31:06;23.80;99.90
3560;DHT22;1794;48.804;9.156;2022-07-04T07:33:34;23.00;99.90
3560;DHT22;1794;48.804;9.156;2022-07-04T07:36:00;23.50;2.90
3560;DHT22;1794;48.804;9.156;2022-07-04T07:38:27;24.00;99.90
3560;DHT22;1794;48.804;9.156;2022-07-04T07:40:54;24.10;99.90
3560;DHT22;1794;48.804;9.156;2022-07-04T07:43:21;24.10;99.90
3560;DHT22;1794;48.804;9.156;2022-07-04T07:45:47;24.40;36.30
3560;DHT22;1794;48.804;9.156;2022-07-04T07:48:14;24.20;1.00
3560;DHT22;1794;48.804;9.156;2022-07-04T07:50:42;24.20;1.00
3560;DHT22;1794;48.804;9.156;2022-07-04T07:53:09;24.30;1.00
3560;DHT22;1794;48.804;9.156;2022-07-04T07:55:36;24.40;1.00
3560;DHT22;1794;48.804;9.156;2022-07-04T07:58:02;24.40;1.00
3560;DHT22;1794;48.804;9.156;2022-07-04T08:00:29;24.20;1.00
3560;DHT22;1794;48.804;9.156;2022-07-04T08:02:56;24.10;1.00
3560;DHT22;1794;48.804;9.156;2022-07-04T08:05:41;24.10;1.00
3560;DHT22;1794;48.804;9.156;2022-07-04T08:08:08;24.30;1.00
3560;DHT22;1794;48.804;9.156;2022-07-04T08:10:35;24.20;1.00
3560;DHT22;1794;48.804;9.156;2022-07-04T08:13:02;24.10;1.00
3560;DHT22;1794;48.804;9.156;2022-07-04T08:15:29;24.20;1.00
3560;DHT22;1794;48.804;9.156;2022-07-04T08:17:56;24.10;67.20
3560;DHT22;1794;48.804;9.156;2022-07-04T08:20:23;24.50;1.00
3560;DHT22;1794;48.804;9.156;2022-07-04T08:22:51;24.20;1.00
3560;DHT22;1794;48.804;9.156;2022-07-04T08:25:18;24.30;1.00
3560;DHT22;1794;48.804;9.156;2022-07-04T08:27:45;24.20;1.00
3560;DHT22;1794;48.804;9.156;2022-07-04T08:30:12;24.10;99.90
3560;DHT22;1794;48.804;9.156;2022-07-04T08:32:39;24.10;99.90
3560;DHT22;1794;48.804;9.156;2022-07-04T08:35:06;24.40;1.00
3560;DHT22;1794;48.804;9.156;2022-07-04T08:37:33;24.30;1.00
3560;DHT22;1794;48.804;9.156;2022-07-04T08:40:02;23.90;99.90
3560;DHT22;1794;48.804;9.156;2022-07-04T08:42:36;24.10;1.00
3560;DHT22;1794;48.804;9.156;2022-07-04T08:45:04;24.50;1.00
3560;DHT22;1794;48.804;9.156;2022-07-04T08:47:33;24.50;99.90
3560;DHT22;1794;48.804;9.156;2022-07-04T08:50:07;24.10;1.00
3560;DHT22;1794;48.804;9.156;2022-07-04T08:52:38;24.30;1.00
3560;DHT22;1794;48.804;9.156;2022-07-04T08:55:08;25.00;99.90
3560;DHT22;1794;48.804;9.156;2022-07-04T08:57:53;25.50;10.10
3560;DHT22;1794;48.804;9.156;2022-07-04T09:00:49;25.70;1.00
3560;DHT22;1794;48.804;9.156;2022-07-04T09:03:18;25.80;1.00
3560;DHT22;1794;48.804;9.156;2022-07-04T09:05:45;25.90;4.00
3560;DHT22;1794;48.804;9.156;2022-07-04T09:08:12;25.40;1.00
3560;DHT22;1794;48.804;9.156;2022-07-04T09:10:40;26.40;1.00
3560;DHT22;1794;48.804;9.156;2022-07-04T09:13:09;26.80;1.00
3560;DHT22;1794;48.804;9.156;2022-07-04T09:15:36;27.20;1.00
3560;DHT22;1794;48.804;9.156;2022-07-04T09:18:03;27.30;1.00
3560;DHT22;1794;48.804;9.156;2022-07-04T09:20:31;27.30;1.00
3560;DHT22;1794;48.804;9.156;2022-07-04T09:22:59;27.90;1.00
3560;DHT22;1794;48.804;9.156;2022-07-04T09:25:26;26.80;1.00
3560;DHT22;1794;48.804;9.156;2022-07-04T09:27:55;28.60;1.00
3560;DHT22;1794;48.804;9.156;2022-07-04T09:30:24;29.80;1.00
3560;DHT22;1794;48.804;9.156;2022-07-04T09:32:52;29.50;1.00
3560;DHT22;1794;48.804;9.156;2022-07-04T09:35:26;26.40;1.00
3560;DHT22;1794;48.804;9.156;2022-07-04T09:37:55;28.00;1.00
3560;DHT22;1794;48.804;9.156;2022-07-04T09:40:25;29.50;1.00
3560;DHT22;1794;48.804;9.156;2022-07-04T09:42:54;30.10;1.00
3560;DHT22;1794;48.804;9.156;2022-07-04T09:45:21;31.30;1.00
3560;DHT22;1794;48.804;9.156;2022-07-04T09:47:50;31.80;99.90
3560;DHT22;1794;48.804;9.156;2022-07-04T09:50:18;31.40;99.90
3560;DHT22;1794;48.804;9.156;2022-07-04T09:52:48;31.50;99.90
3560;DHT22;1794;48.804;9.156;2022-07-04T09:55:26;31.50;99.90
3560;DHT22;1794;48.804;9.156;2022-07-04T09:57:56;33.20;99.90
3560;DHT22;1794;48.804;9.156;2022-07-04T10:00:25;34.30;99.90
3560;DHT22;1794;48.804;9.156;2022-07-04T10:02:52;33.40;99.90
3560;DHT22;1794;48.804;9.156;2022-07-04T10:05:25;33.90;99.90
3560;DHT22;1794;48.804;9.156;2022-07-04T10:07:54;30.70;99.90
3560;DHT22;1794;48.804;9.156;2022-07-04T10:10:26;32.60;99.90
3560;DHT22;1794;48.804;9.156;2022-07-04T10:12:56;33.50;99.90
3560;DHT22;1794;48.804;9.156;2022-07-04T10:15:23;34.20;99.90
3560;DHT22;1794;48.804;9.156;2022-07-04T10:17:50;34.30;99.90
3560;DHT22;1794;48.804;9.156;2022-07-04T10:20:17;33.20;99.90
3560;DHT22;1794;48.804;9.156;2022-07-04T10:22:44;33.90;99.90
3560;DHT22;1794;48.804;9.156;2022-07-04T10:25:11;34.00;99.90
3560;DHT22;1794;48.804;9.156;2022-07-04T10:27:38;34.50;99.90
3560;DHT22;1794;48.804;9.156;2022-07-04T10:30:09;34.70;99.90
3560;DHT22;1794;48.804;9.156;2022-07-04T10:32:38;34.10;99.90
3560;DHT22;1794;48.804;9.156;2022-07-04T10:35:05;32.10;99.90
3560;DHT22;1794;48.804;9.156;2022-07-04T10:37:58;29.50;99.90
3560;DHT22;1794;48.804;9.156;2022-07-04T10:40:42;30.90;99.90
3560;DHT22;1794;48.804;9.156;2022-07-04T10:43:39;34.40;99.90
3560;DHT22;1794;48.804;9.156;2022-07-04T10:46:36;34.40;99.90
3560;DHT22;1794;48.804;9.156;2022-07-04T10:49:07;35.70;99.90
3560;DHT22;1794;48.804;9.156;2022-07-04T10:51:44;32.20;99.90
3560;DHT22;1794;48.804;9.156;2022-07-04T10:54:13;32.00;99.90
3560;DHT22;1794;48.804;9.156;2022-07-04T10:56:43;31.50;99.90
3560;DHT22;1794;48.804;9.156;2022-07-04T10:59:12;34.30;99.90
3560;DHT22;1794;48.804;9.156;2022-07-04T11:01:45;35.30;99.90
3560;DHT22;1794;48.804;9.156;2022-07-04T11:04:12;33.10;99.90
3560;DHT22;1794;48.804;9.156;2022-07-04T11:06:51;30.90;99.90
3560;DHT22;1794;48.804;9.156;2022-07-04T11:09:21;33.80;99.90
3560;DHT22;1794;48.804;9.156;2022-07-04T11:11:54;34.10;99.90
3560;DHT22;1794;48.804;9.156;2022-07-04T11:14:46;33.80;99.90
3560;DHT22;1794;48.804;9.156;2022-07-04T11:17:15;34.50;99.90
3560;DHT22;1794;48.804;9.156;2022-07-04T11:19:45;35.60;99.90
3560;DHT22;1794;48.804;9.156;2022-07-04T11:22:22;35.40;99.90
3560;DHT22;1794;48.804;9.156;2022-07-04T11:24:49;36.40;99.90
3560;DHT22;1794;48.804;9.156;2022-07-04T11:27:16;36.60;99.90
3560;DHT22;1794;48.804;9.156;2022-07-04T11:29:49;36.40;99.90
3560;DHT22;1794;48.804;9.156;2022-07-04T11:32:17;34.30;99.90
3560;DHT22;1794;48.804;9.156;2022-07-04T11:34:44;32.80;99.90
3560;DHT22;1794;48.804;9.156;2022-07-04T11:37:11;32.70;99.90
3560;DHT22;1794;48.804;9.156;2022-07-04T11:39:38;29.50;99.90
3560;DHT22;1794;48.804;9.156;2022-07-04T11:42:05;30.20;99.90
3560;DHT22;1794;48.804;9.156;2022-07-04T11:44:46;30.00;99.90
3560;DHT22;1794;48.804;9.156;2022-07-04T11:47:34;31.20;99.90
3560;DHT22;1794;48.804;9.156;2022-07-04T11:50:03;34.70;99.90
3560;DHT22;1794;48.804;9.156;2022-07-04T11:52:38;33.30;99.90
3560;DHT22;1794;48.804;9.156;2022-07-04T11:55:06;35.10;99.90
3560;DHT22;1794;48.804;9.156;2022-07-04T11:57:34;37.20;99.90
3560;DHT22;1794;48.804;9.156;2022-07-04T12:00:05;36.20;99.90
3560;DHT22;1794;48.804;9.156;2022-07-04T12:02:34;31.00;99.90
3560;DHT22;1794;48.804;9.156;2022-07-04T12:05:01;31.90;99.90
3560;DHT22;1794;48.804;9.156;2022-07-04T12:07:30;31.50;99.90
3560;DHT22;1794;48.804;9.156;2022-07-04T12:10:06;33.50;99.90
3560;DHT22;1794;48.804;9.156;2022-07-04T12:12:34;35.10;99.90
3560;DHT22;1794;48.804;9.156;2022-07-04T12:15:04;35.40;99.90
3560;DHT22;1794;48.804;9.156;2022-07-04T12:17:34;35.60;99.90
3560;DHT22;1794;48.804;9.156;2022-07-04T12:20:04;36.00;99.90
3560;DHT22;1794;48.804;9.156;2022-07-04T12:22:37;36.50;99.90
3560;DHT22;1794;48.804;9.156;2022-07-04T12:25:07;36.30;99.90
3560;DHT22;1794;48.804;9.156;2022-07-04T12:27:36;35.90;99.90
3560;DHT22;1794;48.804;9.156;2022-07-04T12:30:04;34.50;99.90
3560;DHT22;1794;48.804;9.156;2022-07-04T12:32:52;32.00;99.90
3560;DHT22;1794;48.804;9.156;2022-07-04T12:35:44;33.80;99.90
3560;DHT22;1794;48.804;9.156;2022-07-04T12:38:14;33.80;99.90
3560;DHT22;1794;48.804;9.156;2022-07-04T12:40:56;31.70;99.90
3560;DHT22;1794;48.804;9.156;2022-07-04T12:43:24;30.40;99.90
3560;DHT22;1794;48.804;9.156;2022-07-04T12:45:52;30.90;99.90
3560;DHT22;1794;48.804;9.156;2022-07-04T12:48:24;30.70;99.90
3560;DHT22;1794;48.804;9.156;2022-07-04T12:50:52;30.70;99.90
3560;DHT22;1794;48.804;9.156;2022-07-04T12:53:19;30.20;99.90
3560;DHT22;1794;48.804;9.156;2022-07-04T12:55:47;30.30;99.90
3560;DHT22;1794;48.804;9.156;2022-07-04T12:58:14;30.30;99.90
3560;DHT22;1794;48.804;9.156;2022-07-04T13:00:41;30.20;99.90
3560;DHT22;1794;48.804;9.156;2022-07-04T13:03:08;30.40;99.90
3560;DHT22;1794;48.804;9.156;2022-07-04T13:05:37;30.00;99.90
3560;DHT22;1794;48.804;9.156;2022-07-04T13:08:04;29.70;99.90
3560;DHT22;1794;48.804;9.156;2022-07-04T13:10:32;29.80;99.90
3560;DHT22;1794;48.804;9.156;2022-07-04T13:12:59;29.90;99.90
3560;DHT22;1794;48.804;9.156;2022-07-04T13:15:26;29.90;99.90
3560;DHT22;1794;48.804;9.156;2022-07-04T13:17:53;29.80;99.90
3560;DHT22;1794;48.804;9.156;2022-07-04T13:20:19;29.20;99.90
3560;DHT22;1794;48.804;9.156;2022-07-04T13:22:48;29.50;99.90
3560;DHT22;1794;48.804;9.156;2022-07-04T13:25:14;27.70;99.90
3560;DHT22;1794;48.804;9.156;2022-07-04T13:27:41;27.60;99.90
3560;DHT22;1794;48.804;9.156;2022-07-04T13:30:09;27.70;99.90
3560;DHT22;1794;48.804;9.156;2022-07-04T13:32:35;28.20;99.90
3560;DHT22;1794;48.804;9.156;2022-07-04T13:35:03;28.30;99.90
3560;DHT22;1794;48.804;9.156;2022-07-04T13:37:30;29.00;99.90
3560;DHT22;1794;48.804;9.156;2022-07-04T13:39:58;29.10;99.90
3560;DHT22;1794;48.804;9.156;2022-07-04T13:42:24;29.20;99.90
3560;DHT22;1794;48.804;9.156;2022-07-04T13:45:09;28.90;99.90
3560;DHT22;1794;48.804;9.156;2022-07-04T13:47:37;28.80;99.90
3560;DHT22;1794;48.804;9.156;2022-07-04T13:50:04;28.20;99.90
3560;DHT22;1794;48.804;9.156;2022-07-04T13:52:31;28.10;99.90
3560;DHT22;1794;48.804;9.156;2022-07-04T13:54:59;27.40;99.90
3560;DHT22;1794;48.804;9.156;2022-07-04T13:57:26;28.20;99.90
3560;DHT22;1794;48.804;9.156;2022-07-04T13:59:53;28.40;99.90
3560;DHT22;1794;48.804;9.156;2022-07-04T14:02:20;28.70;99.90
3560;DHT22;1794;48.804;9.156;2022-07-04T14:04:47;28.70;99.90
3560;DHT22;1794;48.804;9.156;2022-07-04T14:07:14;28.40;99.90
3560;DHT22;1794;48.804;9.156;2022-07-04T14:09:40;28.40;99.90
3560;DHT22;1794;48.804;9.156;2022-07-04T14:15:30;28.20;99.90
3560;DHT22;1794;48.804;9.156;2022-07-04T14:17:57;27.90;99.90
3560;DHT22;1794;48.804;9.156;2022-07-04T14:20:23;27.70;99.90
3560;DHT22;1794;48.804;9.156;2022-07-04T14:22:50;27.60;99.90
3560;DHT22;1794;48.804;9.156;2022-07-04T14:25:17;27.70;99.90
3560;DHT22;1794;48.804;9.156;2022-07-04T14:27:43;27.90;99.90
3560;DHT22;1794;48.804;9.156;2022-07-04T14:30:10;27.80;99.90
3560;DHT22;1794;48.804;9.156;2022-07-04T14:32:38;28.00;99.90
3560;DHT22;1794;48.804;9.156;2022-07-04T14:35:06;27.60;99.90
3560;DHT22;1794;48.804;9.156;2022-07-04T14:37:32;27.20;99.90
3560;DHT22;1794;48.804;9.156;2022-07-04T14:39:59;27.40;99.90
3560;DHT22;1794;48.804;9.156;2022-07-04T14:42:26;27.70;99.90
3560;DHT22;1794;48.804;9.156;2022-07-04T14:44:52;27.80;99.90
3560;DHT22;1794;48.804;9.156;2022-07-04T14:47:19;27.90;99.90
3560;DHT22;1794;48.804;9.156;2022-07-04T14:49:47;27.70;99.90
3560;DHT22;1794;48.804;9.156;2022-07-04T14:52:13;27.50;99.90
3560;DHT22;1794;48.804;9.156;2022-07-04T14:54:40;27.50;99.90
3560;DHT22;1794;48.804;9.156;2022-07-04T14:57:07;27.60;99.90
3560;DHT22;1794;48.804;9.156;2022-07-04T14:59:34;27.50;99.90
3560;DHT22;1794;48.804;9.156;2022-07-04T15:02:02;27.60;99.90
3560;DHT22;1794;48.804;9.156;2022-07-04T15:04:29;27.30;99.90
3560;DHT22;1794;48.804;9.156;2022-07-04T15:06:57;27.50;99.90
3560;DHT22;1794;48.804;9.156;2022-07-04T15:09:25;27.80;99.90
3560;DHT22;1794;48.804;9.156;2022-07-04T15:11:52;28.10;99.90
3560;DHT22;1794;48.804;9.156;2022-07-04T15:14:19;28.20;99.90
3560;DHT22;1794;48.804;9.156;2022-07-04T15:16:45;28.30;99.90
3560;DHT22;1794;48.804;9.156;2022-07-04T15:19:12;28.10;99.90
3560;DHT22;1794;48.804;9.156;2022-07-04T15:21:39;28.00;99.90
3560;DHT22;1794;48.804;9.156;2022-07-04T15:24:25;27.70;99.90
3560;DHT22;1794;48.804;9.156;2022-07-04T15:26:51;28.00;99.90
3560;DHT22;1794;48.804;9.156;2022-07-04T15:29:19;28.10;99.90
3560;DHT22;1794;48.804;9.156;2022-07-04T15:31:47;28.00;99.90
3560;DHT22;1794;48.804;9.156;2022-07-04T15:34:14;28.00;99.90
3560;DHT22;1794;48.804;9.156;2022-07-04T15:36:41;27.80;99.90
3560;DHT22;1794;48.804;9.156;2022-07-04T15:39:09;27.80;99.90
3560;DHT22;1794;48.804;9.156;2022-07-04T15:41:38;27.90;99.90
3560;DHT22;1794;48.804;9.156;2022-07-04T15:44:05;28.00;99.90
3560;DHT22;1794;48.804;9.156;2022-07-04T15:46:32;28.30;99.90
3560;DHT22;1794;48.804;9.156;2022-07-04T15:49:01;28.40;99.90
3560;DHT22;1794;48.804;9.156;2022-07-04T15:53:40;28.40;99.90
3560;DHT22;1794;48.804;9.156;2022-07-04T15:56:07;28.50;99.90
3560;DHT22;1794;48.804;9.156;2022-07-04T15:58:33;28.40;99.90
3560;DHT22;1794;48.804;9.156;2022-07-04T16:01:00;28.30;99.90
3560;DHT22;1794;48.804;9.156;2022-07-04T16:03:27;27.90;99.90
3560;DHT22;1794;48.804;9.156;2022-07-04T16:05:54;27.80;99.90
3560;DHT22;1794;48.804;9.156;2022-07-04T16:08:21;27.40;99.90
3560;DHT22;1794;48.804;9.156;2022-07-04T16:10:49;27.20;99.90
3560;DHT22;1794;48.804;9.156;2022-07-04T16:13:16;26.70;99.90
3560;DHT22;1794;48.804;9.156;2022-07-04T16:15:43;26.80;99.90
3560;DHT22;1794;48.804;9.156;2022-07-04T16:18:10;26.90;99.90
3560;DHT22;1794;48.804;9.156;2022-07-04T16:20:37;26.90;99.90
3560;DHT22;1794;48.804;9.156;2022-07-04T16:23:04;26.80;99.90